sensor_id;sensor_type;location;lat;lon;timestamp;temperature;humidity
23102;DHT22;11720;51.214;22.574;2023-02-22T00:00:18;3.80;99.90
23102;DHT22;11720;51.214;22.574;2023-02-22T00:02:51;3.80;99.90
23102;DHT22;11720;51.214;22.574;2023-02-22T00:05:19;3.90;99.90
23102;DHT22;11720;51.214;22.574;2023-02-22T00:07:48;3.90;99.90
23102;DHT22;11720;51.214;22.574;2023-02-22T00:10:15;3.90;99.90
23102;DHT22;11720;51.214;22.574;2023-02-22T00:12:46;3.80;99.90
23102;DHT22;11720;51.214;22.574;2023-02-22T00:15:14;3.90;99.90
23102;DHT22;11720;51.214;22.574;2023-02-22T00:17:40;3.90;99.90
23102;DHT22;11720;51.214;22.574;2023-02-22T00:20:07;3.90;99.90
23102;DHT22;11720;51.214;22.574;2023-02-22T00:22:33;3.90;99.90
23102;DHT22;11720;51.214;22.574;2023-02-22T00:24:58;3.90;99.90
23102;DHT22;11720;51.214;22.574;2023-02-22T00:27:24;4.00;99.90
23102;DHT22;11720;51.214;22.574;2023-02-22T00:29:50;4.00;99.90
23102;DHT22;11720;51.214;22.574;2023-02-22T00:32:15;4.00;99.90
23102;DHT22;11720;51.214;22.574;2023-02-22T00:34:41;4.10;99.90
23102;DHT22;11720;51.214;22.574;2023-02-22T00:37:09;4.10;99.90
23102;DHT22;11720;51.214;22.574;2023-02-22T00:39:35;4.10;99.90
23102;DHT22;11720;51.214;22.574;2023-02-22T00:42:01;4.00;99.90
23102;DHT22;11720;51.214;22.574;2023-02-22T00:44:26;4.10;99.90
23102;DHT22;11720;51.214;22.574;2023-02-22T00:46:52;4.10;99.90
23102;DHT22;11720;51.214;22.574;2023-02-22T00:49:18;4.10;99.90
23102;DHT22;11720;51.214;22.574;2023-02-22T00:51:44;4.00;99.90
23102;DHT22;11720;51.214;22.574;2023-02-22T00:54:09;4.00;99.90
23102;DHT22;11720;51.214;22.574;2023-02-22T00:56:36;4.00;99.90
23102;DHT22;11720;51.214;22.574;2023-02-22T00:59:02;4.00;99.90
23102;DHT22;11720;51.214;22.574;2023-02-22T01:01:30;4.00;99.90
23102;DHT22;11720;51.214;22.574;2023-02-22T01:03:56;4.00;99.90
23102;DHT22;11720;51.214;22.574;2023-02-22T01:06:21;4.00;99.90
23102;DHT22;11720;51.214;22.574;2023-02-22T01:08:48;4.00;99.90
23102;DHT22;11720;51.214;22.574;2023-02-22T01:11:15;4.00;99.90
23102;DHT22;11720;51.214;22.574;2023-02-22T01:13:41;4.00;99.90
23102;DHT22;11720;51.214;22.574;2023-02-22T01:16:10;4.00;99.90
23102;DHT22;11720;51.214;22.574;2023-02-22T01:18:36;4.00;99.90
23102;DHT22;11720;51.214;22.574;2023-02-22T01:21:05;4.10;99.90
23102;DHT22;11720;51.214;22.574;2023-02-22T01:23:31;4.20;99.90
23102;DHT22;11720;51.214;22.574;2023-02-22T01:25:57;4.10;99.90
23102;DHT22;11720;51.214;22.574;2023-02-22T01:28:23;4.10;99.90
23102;DHT22;11720;51.214;22.574;2023-02-22T01:30:49;4.10;99.90
23102;DHT22;11720;51.214;22.574;2023-02-22T01:33:15;4.10;99.90
23102;DHT22;11720;51.214;22.574;2023-02-22T01:35:42;4.10;99.90
23102;DHT22;11720;51.214;22.574;2023-02-22T01:38:09;4.10;99.90
23102;DHT22;11720;51.214;22.574;2023-02-22T01:40:37;4.10;99.90
23102;DHT22;11720;51.214;22.574;2023-02-22T01:43:13;4.10;99.90
23102;DHT22;11720;51.214;22.574;2023-02-22T01:45:44;4.10;99.90
23102;DHT22;11720;51.214;22.574;2023-02-22T01:48:42;4.00;99.90
23102;DHT22;11720;51.214;22.574;2023-02-22T01:51:18;4.10;99.90
23102;DHT22;11720;51.214;22.574;2023-02-22T01:56:21;4.10;99.90
23102;DHT22;11720;51.214;22.574;2023-02-22T01:58:56;4.10;99.90
23102;DHT22;11720;51.214;22.574;2023-02-22T02:01:24;4.10;99.90
23102;DHT22;11720;51.214;22.574;2023-02-22T02:03:51;4.10;99.90
23102;DHT22;11720;51.214;22.574;2023-02-22T02:06:18;3.60;99.90
23102;DHT22;11720;51.214;22.574;2023-02-22T02:11:19;4.00;99.90
23102;DHT22;11720;51.214;22.574;2023-02-22T02:13:46;4.00;99.90
23102;DHT22;11720;51.214;22.574;2023-02-22T02:16:14;4.00;99.90
23102;DHT22;11720;51.214;22.574;2023-02-22T02:18:40;4.00;99.90
23102;DHT22;11720;51.214;22.574;2023-02-22T02:27:17;4.00;99.90
23102;DHT22;11720;51.214;22.574;2023-02-22T02:38:03;3.90;99.90
23102;DHT22;11720;51.214;22.574;2023-02-22T02:40:40;3.90;99.90
23102;DHT22;11720;51.214;22.574;2023-02-22T02:43:25;3.80;99.90
23102;DHT22;11720;51.214;22.574;2023-02-22T02:46:19;3.80;99.90
23102;DHT22;11720;51.214;22.574;2023-02-22T02:48:51;3.80;99.90
23102;DHT22;11720;51.214;22.574;2023-02-22T02:51:22;3.80;99.90
23102;DHT22;11720;51.214;22.574;2023-02-22T02:53:50;3.70;99.90
23102;DHT22;11720;51.214;22.574;2023-02-22T02:56:17;3.60;99.90
23102;DHT22;11720;51.214;22.574;2023-02-22T02:58:48;3.60;99.90
23102;DHT22;11720;51.214;22.574;2023-02-22T03:04:33;3.50;99.90
23102;DHT22;11720;51.214;22.574;2023-02-22T03:21:45;3.40;99.90
23102;DHT22;11720;51.214;22.574;2023-02-22T03:24:24;3.50;99.90
23102;DHT22;11720;51.214;22.574;2023-02-22T03:27:03;3.40;99.90
23102;DHT22;11720;51.214;22.574;2023-02-22T03:29:39;3.50;99.90
23102;DHT22;11720;51.214;22.574;2023-02-22T03:32:10;3.40;99.90
23102;DHT22;11720;51.214;22.574;2023-02-22T03:34:46;3.40;99.90
23102;DHT22;11720;51.214;22.574;2023-02-22T03:37:27;3.40;99.90
23102;DHT22;11720;51.214;22.574;2023-02-22T03:39:54;3.30;99.90
23102;DHT22;11720;51.214;22.574;2023-02-22T03:42:28;3.30;99.90
23102;DHT22;11720;51.214;22.574;2023-02-22T03:44:57;3.30;99.90
23102;DHT22;11720;51.214;22.574;2023-02-22T03:47:34;3.20;99.90
23102;DHT22;11720;51.214;22.574;2023-02-22T03:50:12;3.20;99.90
23102;DHT22;11720;51.214;22.574;2023-02-22T03:52:40;3.20;99.90
23102;DHT22;11720;51.214;22.574;2023-02-22T03:55:08;3.10;99.90
23102;DHT22;11720;51.214;22.574;2023-02-22T03:57:38;3.10;99.90
23102;DHT22;11720;51.214;22.574;2023-02-22T04:00:07;3.10;99.90
23102;DHT22;11720;51.214;22.574;2023-02-22T04:02:33;3.00;99.90
23102;DHT22;11720;51.214;22.574;2023-02-22T04:04:59;3.00;99.90
23102;DHT22;11720;51.214;22.574;2023-02-22T04:07:25;3.10;99.90
23102;DHT22;11720;51.214;22.574;2023-02-22T04:09:51;3.10;99.90
23102;DHT22;11720;51.214;22.574;2023-02-22T04:12:16;3.10;99.90
23102;DHT22;11720;51.214;22.574;2023-02-22T04:14:42;3.10;99.90
23102;DHT22;11720;51.214;22.574;2023-02-22T04:17:08;3.10;99.90
23102;DHT22;11720;51.214;22.574;2023-02-22T04:19:35;3.10;99.90
23102;DHT22;11720;51.214;22.574;2023-02-22T04:22:01;3.10;99.90
23102;DHT22;11720;51.214;22.574;2023-02-22T04:24:27;3.10;99.90
23102;DHT22;11720;51.214;22.574;2023-02-22T04:26:52;3.10;99.90
23102;DHT22;11720;51.214;22.574;2023-02-22T04:29:19;3.10;99.90
23102;DHT22;11720;51.214;22.574;2023-02-22T04:31:45;3.10;99.90
23102;DHT22;11720;51.214;22.574;2023-02-22T04:34:11;3.10;99.90
23102;DHT22;11720;51.214;22.574;2023-02-22T04:36:37;3.10;99.90
23102;DHT22;11720;51.214;22.574;2023-02-22T04:39:02;3.00;99.90
23102;DHT22;11720;51.214;22.574;2023-02-22T04:41:29;3.10;99.90
23102;DHT22;11720;51.214;22.574;2023-02-22T04:43:56;3.10;99.90
23102;DHT22;11720;51.214;22.574;2023-02-22T04:46:22;3.10;99.90
23102;DHT22;11720;51.214;22.574;2023-02-22T04:48:48;3.10;99.90
23102;DHT22;11720;51.214;22.574;2023-02-22T04:51:14;3.10;99.90
23102;DHT22;11720;51.214;22.574;2023-02-22T04:53:40;3.10;99.90
23102;DHT22;11720;51.214;22.574;2023-02-22T04:56:06;3.10;99.90
23102;DHT22;11720;51.214;22.574;2023-02-22T04:58:31;3.00;99.90
23102;DHT22;11720;51.214;22.574;2023-02-22T05:00:57;3.00;99.90
23102;DHT22;11720;51.214;22.574;2023-02-22T05:03:23;3.00;99.90
23102;DHT22;11720;51.214;22.574;2023-02-22T05:05:50;3.00;99.90
23102;DHT22;11720;51.214;22.574;2023-02-22T05:08:15;3.00;99.90
23102;DHT22;11720;51.214;22.574;2023-02-22T05:10:41;3.00;99.90
23102;DHT22;11720;51.214;22.574;2023-02-22T05:13:07;3.00;99.90
23102;DHT22;11720;51.214;22.574;2023-02-22T05:15:33;3.00;99.90
23102;DHT22;11720;51.214;22.574;2023-02-22T05:17:59;3.00;99.90
23102;DHT22;11720;51.214;22.574;2023-02-22T05:20:33;3.00;99.90
23102;DHT22;11720;51.214;22.574;2023-02-22T05:23:00;2.90;99.90
23102;DHT22;11720;51.214;22.574;2023-02-22T05:25:26;2.80;99.90
23102;DHT22;11720;51.214;22.574;2023-02-22T05:28:07;2.90;99.90
23102;DHT22;11720;51.214;22.574;2023-02-22T05:30:34;2.90;99.90
23102;DHT22;11720;51.214;22.574;2023-02-22T05:33:01;2.80;99.90
23102;DHT22;11720;51.214;22.574;2023-02-22T05:35:27;2.80;99.90
23102;DHT22;11720;51.214;22.574;2023-02-22T05:37:54;2.80;99.90
23102;DHT22;11720;51.214;22.574;2023-02-22T05:40:25;2.80;99.90
23102;DHT22;11720;51.214;22.574;2023-02-22T05:42:52;2.80;99.90
23102;DHT22;11720;51.214;22.574;2023-02-22T05:45:20;2.70;99.90
23102;DHT22;11720;51.214;22.574;2023-02-22T05:47:46;2.70;99.90
23102;DHT22;11720;51.214;22.574;2023-02-22T05:50:13;2.70;99.90
23102;DHT22;11720;51.214;22.574;2023-02-22T05:52:39;2.80;99.90
23102;DHT22;11720;51.214;22.574;2023-02-22T05:55:06;2.70;99.90
23102;DHT22;11720;51.214;22.574;2023-02-22T05:57:32;2.80;99.90
23102;DHT22;11720;51.214;22.574;2023-02-22T05:59:58;2.70;99.90
23102;DHT22;11720;51.214;22.574;2023-02-22T06:02:24;2.70;99.90
23102;DHT22;11720;51.214;22.574;2023-02-22T06:04:49;2.60;99.90
23102;DHT22;11720;51.214;22.574;2023-02-22T06:07:15;2.70;99.90
23102;DHT22;11720;51.214;22.574;2023-02-22T06:09:41;2.60;99.90
23102;DHT22;11720;51.214;22.574;2023-02-22T06:12:07;2.60;99.90
23102;DHT22;11720;51.214;22.574;2023-02-22T06:14:33;2.60;99.90
23102;DHT22;11720;51.214;22.574;2023-02-22T06:16:59;2.60;99.90
23102;DHT22;11720;51.214;22.574;2023-02-22T06:19:26;2.50;99.90
23102;DHT22;11720;51.214;22.574;2023-02-22T06:21:53;2.50;99.90
23102;DHT22;11720;51.214;22.574;2023-02-22T06:24:21;2.50;99.90
23102;DHT22;11720;51.214;22.574;2023-02-22T06:26:56;2.50;99.90
23102;DHT22;11720;51.214;22.574;2023-02-22T06:29:23;2.50;99.90
23102;DHT22;11720;51.214;22.574;2023-02-22T06:31:49;2.50;99.90
23102;DHT22;11720;51.214;22.574;2023-02-22T06:34:16;2.60;99.90
23102;DHT22;11720;51.214;22.574;2023-02-22T06:36:42;2.60;99.90
23102;DHT22;11720;51.214;22.574;2023-02-22T06:39:08;2.70;99.90
23102;DHT22;11720;51.214;22.574;2023-02-22T06:41:37;2.70;99.90
23102;DHT22;11720;51.214;22.574;2023-02-22T06:44:03;2.90;99.90
23102;DHT22;11720;51.214;22.574;2023-02-22T06:46:29;3.10;99.90
23102;DHT22;11720;51.214;22.574;2023-02-22T06:48:55;3.10;99.90
23102;DHT22;11720;51.214;22.574;2023-02-22T06:51:24;3.10;99.90
23102;DHT22;11720;51.214;22.574;2023-02-22T06:53:50;3.10;99.90
23102;DHT22;11720;51.214;22.574;2023-02-22T06:56:16;2.90;99.90
23102;DHT22;11720;51.214;22.574;2023-02-22T06:58:42;2.90;99.90
23102;DHT22;11720;51.214;22.574;2023-02-22T07:01:07;2.80;99.90
23102;DHT22;11720;51.214;22.574;2023-02-22T07:03:33;2.80;99.90
23102;DHT22;11720;51.214;22.574;2023-02-22T07:06:00;2.80;99.90
23102;DHT22;11720;51.214;22.574;2023-02-22T07:08:27;2.80;99.90
23102;DHT22;11720;51.214;22.574;2023-02-22T07:10:53;2.80;99.90
23102;DHT22;11720;51.214;22.574;2023-02-22T07:13:19;2.70;99.90
23102;DHT22;11720;51.214;22.574;2023-02-22T07:15:45;2.70;99.90
23102;DHT22;11720;51.214;22.574;2023-02-22T07:18:11;2.60;99.90
23102;DHT22;11720;51.214;22.574;2023-02-22T07:20:38;2.60;99.90
23102;DHT22;11720;51.214;22.574;2023-02-22T07:23:05;2.70;99.90
23102;DHT22;11720;51.214;22.574;2023-02-22T07:25:30;2.80;99.90
23102;DHT22;11720;51.214;22.574;2023-02-22T07:27:56;2.70;99.90
23102;DHT22;11720;51.214;22.574;2023-02-22T07:30:25;2.80;99.90
23102;DHT22;11720;51.214;22.574;2023-02-22T07:32:55;2.80;99.90
23102;DHT22;11720;51.214;22.574;2023-02-22T07:35:24;2.80;99.90
23102;DHT22;11720;51.214;22.574;2023-02-22T07:37:50;2.90;99.90
23102;DHT22;11720;51.214;22.574;2023-02-22T07:40:17;2.90;99.90
23102;DHT22;11720;51.214;22.574;2023-02-22T07:43:00;2.90;99.90
23102;DHT22;11720;51.214;22.574;2023-02-22T07:45:28;3.00;99.90
23102;DHT22;11720;51.214;22.574;2023-02-22T07:47:54;3.00;99.90
23102;DHT22;11720;51.214;22.574;2023-02-22T07:50:22;3.10;99.90
23102;DHT22;11720;51.214;22.574;2023-02-22T07:52:52;3.20;99.90
23102;DHT22;11720;51.214;22.574;2023-02-22T07:55:21;3.30;99.90
23102;DHT22;11720;51.214;22.574;2023-02-22T07:57:49;3.30;99.90
23102;DHT22;11720;51.214;22.574;2023-02-22T08:00:27;3.30;99.90
23102;DHT22;11720;51.214;22.574;2023-02-22T08:02:53;3.20;99.90
23102;DHT22;11720;51.214;22.574;2023-02-22T08:05:20;2.00;99.90
23102;DHT22;11720;51.214;22.574;2023-02-22T08:07:47;3.20;99.90
23102;DHT22;11720;51.214;22.574;2023-02-22T08:10:14;3.10;99.90
23102;DHT22;11720;51.214;22.574;2023-02-22T08:12:40;3.10;99.90
23102;DHT22;11720;51.214;22.574;2023-02-22T08:15:08;3.10;99.90
23102;DHT22;11720;51.214;22.574;2023-02-22T08:17:34;3.20;99.90
23102;DHT22;11720;51.214;22.574;2023-02-22T08:20:01;3.10;99.90
23102;DHT22;11720;51.214;22.574;2023-02-22T08:22:27;3.20;99.90
23102;DHT22;11720;51.214;22.574;2023-02-22T08:24:54;3.30;99.90
23102;DHT22;11720;51.214;22.574;2023-02-22T08:27:27;3.30;99.90
23102;DHT22;11720;51.214;22.574;2023-02-22T08:29:54;3.40;99.90
23102;DHT22;11720;51.214;22.574;2023-02-22T08:32:20;3.50;99.90
23102;DHT22;11720;51.214;22.574;2023-02-22T08:34:46;3.50;99.90
23102;DHT22;11720;51.214;22.574;2023-02-22T08:37:13;3.50;99.90
23102;DHT22;11720;51.214;22.574;2023-02-22T08:39:39;3.20;99.90
23102;DHT22;11720;51.214;22.574;2023-02-22T08:42:05;3.00;99.90
23102;DHT22;11720;51.214;22.574;2023-02-22T08:44:34;3.00;99.90
23102;DHT22;11720;51.214;22.574;2023-02-22T08:46:59;3.20;99.90
23102;DHT22;11720;51.214;22.574;2023-02-22T08:49:25;3.30;99.90
23102;DHT22;11720;51.214;22.574;2023-02-22T08:51:51;3.30;99.90
23102;DHT22;11720;51.214;22.574;2023-02-22T08:54:17;3.30;99.90
23102;DHT22;11720;51.214;22.574;2023-02-22T08:56:43;3.30;99.90
23102;DHT22;11720;51.214;22.574;2023-02-22T08:59:09;3.40;99.90
23102;DHT22;11720;51.214;22.574;2023-02-22T09:01:35;3.40;99.90
23102;DHT22;11720;51.214;22.574;2023-02-22T09:04:01;3.50;99.90
23102;DHT22;11720;51.214;22.574;2023-02-22T09:06:27;3.60;99.90
23102;DHT22;11720;51.214;22.574;2023-02-22T09:08:53;3.60;99.90
23102;DHT22;11720;51.214;22.574;2023-02-22T09:11:18;3.50;99.90
23102;DHT22;11720;51.214;22.574;2023-02-22T09:13:44;3.50;99.90
23102;DHT22;11720;51.214;22.574;2023-02-22T09:16:10;3.70;99.90
23102;DHT22;11720;51.214;22.574;2023-02-22T09:18:35;3.70;99.90
23102;DHT22;11720;51.214;22.574;2023-02-22T09:21:02;3.70;99.90
23102;DHT22;11720;51.214;22.574;2023-02-22T09:23:28;3.70;99.90
23102;DHT22;11720;51.214;22.574;2023-02-22T09:25:54;3.80;99.90
23102;DHT22;11720;51.214;22.574;2023-02-22T09:28:20;3.80;99.90
23102;DHT22;11720;51.214;22.574;2023-02-22T09:30:46;3.60;99.90
23102;DHT22;11720;51.214;22.574;2023-02-22T09:33:14;3.70;99.90
23102;DHT22;11720;51.214;22.574;2023-02-22T09:35:42;3.80;99.90
23102;DHT22;11720;51.214;22.574;2023-02-22T09:38:17;3.70;99.90
23102;DHT22;11720;51.214;22.574;2023-02-22T09:40:53;3.70;99.90
23102;DHT22;11720;51.214;22.574;2023-02-22T09:48:32;3.90;99.90
23102;DHT22;11720;51.214;22.574;2023-02-22T09:51:01;3.90;99.90
23102;DHT22;11720;51.214;22.574;2023-02-22T09:53:35;3.80;99.90
23102;DHT22;11720;51.214;22.574;2023-02-22T09:56:08;3.70;99.90
23102;DHT22;11720;51.214;22.574;2023-02-22T09:58:38;3.70;99.90
23102;DHT22;11720;51.214;22.574;2023-02-22T10:01:41;3.70;99.90
23102;DHT22;11720;51.214;22.574;2023-02-22T10:10:15;3.70;99.90
23102;DHT22;11720;51.214;22.574;2023-02-22T10:18:29;3.60;99.90
23102;DHT22;11720;51.214;22.574;2023-02-22T10:23:35;3.60;99.90
23102;DHT22;11720;51.214;22.574;2023-02-22T10:26:19;3.50;99.90
23102;DHT22;11720;51.214;22.574;2023-02-22T10:29:07;3.50;99.90
23102;DHT22;11720;51.214;22.574;2023-02-22T10:31:39;3.50;99.90
23102;DHT22;11720;51.214;22.574;2023-02-22T10:34:25;3.50;99.90
23102;DHT22;11720;51.214;22.574;2023-02-22T10:37:02;3.60;99.90
23102;DHT22;11720;51.214;22.574;2023-02-22T10:39:52;3.60;99.90
23102;DHT22;11720;51.214;22.574;2023-02-22T10:42:24;3.70;99.90
23102;DHT22;11720;51.214;22.574;2023-02-22T10:44:50;3.70;99.90
23102;DHT22;11720;51.214;22.574;2023-02-22T10:47:17;3.60;99.90
23102;DHT22;11720;51.214;22.574;2023-02-22T10:49:54;3.60;99.90
23102;DHT22;11720;51.214;22.574;2023-02-22T10:52:27;3.50;99.90
23102;DHT22;11720;51.214;22.574;2023-02-22T10:54:56;3.50;99.90
23102;DHT22;11720;51.214;22.574;2023-02-22T10:57:26;3.60;99.90
23102;DHT22;11720;51.214;22.574;2023-02-22T10:59:53;3.60;99.90
23102;DHT22;11720;51.214;22.574;2023-02-22T11:02:32;3.50;99.90
23102;DHT22;11720;51.214;22.574;2023-02-22T11:05:02;3.50;99.90
23102;DHT22;11720;51.214;22.574;2023-02-22T11:07:34;3.50;99.90
23102;DHT22;11720;51.214;22.574;2023-02-22T11:10:02;3.50;99.90
23102;DHT22;11720;51.214;22.574;2023-02-22T11:14:57;3.40;99.90
23102;DHT22;11720;51.214;22.574;2023-02-22T11:17:49;3.20;99.90
23102;DHT22;11720;51.214;22.574;2023-02-22T11:20:24;3.20;99.90
23102;DHT22;11720;51.214;22.574;2023-02-22T11:22:52;3.10;99.90
23102;DHT22;11720;51.214;22.574;2023-02-22T11:25:21;3.30;99.90
23102;DHT22;11720;51.214;22.574;2023-02-22T11:27:50;3.30;99.90
23102;DHT22;11720;51.214;22.574;2023-02-22T11:30:28;3.40;99.90
23102;DHT22;11720;51.214;22.574;2023-02-22T11:35:55;3.40;99.90
23102;DHT22;11720;51.214;22.574;2023-02-22T11:38:29;3.50;99.90
23102;DHT22;11720;51.214;22.574;2023-02-22T11:41:13;3.50;99.90
23102;DHT22;11720;51.214;22.574;2023-02-22T11:43:42;3.50;99.90
23102;DHT22;11720;51.214;22.574;2023-02-22T11:46:19;3.50;99.90
23102;DHT22;11720;51.214;22.574;2023-02-22T11:54:30;3.70;99.90
23102;DHT22;11720;51.214;22.574;2023-02-22T11:57:44;3.60;99.90
23102;DHT22;11720;51.214;22.574;2023-02-22T12:00:21;3.60;99.90
23102;DHT22;11720;51.214;22.574;2023-02-22T12:03:10;3.50;99.90
23102;DHT22;11720;51.214;22.574;2023-02-22T12:05:58;3.50;99.90
23102;DHT22;11720;51.214;22.574;2023-02-22T12:11:23;3.60;99.90
23102;DHT22;11720;51.214;22.574;2023-02-22T12:19:40;3.60;99.90
23102;DHT22;11720;51.214;22.574;2023-02-22T12:22:22;3.50;99.90
23102;DHT22;11720;51.214;22.574;2023-02-22T12:27:47;3.40;99.90
23102;DHT22;11720;51.214;22.574;2023-02-22T12:30:25;3.50;99.90
23102;DHT22;11720;51.214;22.574;2023-02-22T12:32:58;3.50;99.90
23102;DHT22;11720;51.214;22.574;2023-02-22T12:35:33;3.50;99.90
23102;DHT22;11720;51.214;22.574;2023-02-22T12:41:08;3.30;99.90
23102;DHT22;11720;51.214;22.574;2023-02-22T12:44:07;3.30;99.90
23102;DHT22;11720;51.214;22.574;2023-02-22T12:46:49;3.10;99.90
23102;DHT22;11720;51.214;22.574;2023-02-22T12:49:27;2.90;99.90
23102;DHT22;11720;51.214;22.574;2023-02-22T12:52:15;2.70;99.90
23102;DHT22;11720;51.214;22.574;2023-02-22T13:00:31;2.70;99.90
23102;DHT22;11720;51.214;22.574;2023-02-22T13:03:02;2.70;99.90
23102;DHT22;11720;51.214;22.574;2023-02-22T13:05:35;2.80;99.90
23102;DHT22;11720;51.214;22.574;2023-02-22T13:08:31;2.80;99.90
23102;DHT22;11720;51.214;22.574;2023-02-22T13:11:17;2.70;99.90
23102;DHT22;11720;51.214;22.574;2023-02-22T13:14:10;2.60;99.90
23102;DHT22;11720;51.214;22.574;2023-02-22T13:16:45;2.50;99.90
23102;DHT22;11720;51.214;22.574;2023-02-22T13:19:54;2.50;99.90
23102;DHT22;11720;51.214;22.574;2023-02-22T13:28:16;2.60;99.90
23102;DHT22;11720;51.214;22.574;2023-02-22T13:39:07;2.40;99.90
23102;DHT22;11720;51.214;22.574;2023-02-22T13:41:50;2.50;99.90
23102;DHT22;11720;51.214;22.574;2023-02-22T13:44:27;2.40;99.90
23102;DHT22;11720;51.214;22.574;2023-02-22T13:52:54;2.40;99.90
23102;DHT22;11720;51.214;22.574;2023-02-22T13:55:28;2.40;99.90
23102;DHT22;11720;51.214;22.574;2023-02-22T13:58:06;2.40;99.90
23102;DHT22;11720;51.214;22.574;2023-02-22T14:00:48;2.30;99.90
23102;DHT22;11720;51.214;22.574;2023-02-22T14:10:59;2.30;99.90
23102;DHT22;11720;51.214;22.574;2023-02-22T14:13:27;2.20;99.90
23102;DHT22;11720;51.214;22.574;2023-02-22T14:18:41;2.20;99.90
23102;DHT22;11720;51.214;22.574;2023-02-22T14:21:11;2.30;99.90
23102;DHT22;11720;51.214;22.574;2023-02-22T14:23:48;2.30;99.90
23102;DHT22;11720;51.214;22.574;2023-02-22T14:26:37;2.40;99.90
23102;DHT22;11720;51.214;22.574;2023-02-22T14:34:03;2.30;99.90
23102;DHT22;11720;51.214;22.574;2023-02-22T14:39:36;2.20;99.90
23102;DHT22;11720;51.214;22.574;2023-02-22T14:44:50;2.10;99.90
23102;DHT22;11720;51.214;22.574;2023-02-22T14:47:24;2.10;99.90
23102;DHT22;11720;51.214;22.574;2023-02-22T14:49:56;2.10;99.90
23102;DHT22;11720;51.214;22.574;2023-02-22T14:52:29;2.10;99.90
23102;DHT22;11720;51.214;22.574;2023-02-22T15:00:23;2.10;99.90
23102;DHT22;11720;51.214;22.574;2023-02-22T15:02:59;2.10;99.90
23102;DHT22;11720;51.214;22.574;2023-02-22T15:05:29;2.10;99.90
23102;DHT22;11720;51.214;22.574;2023-02-22T15:08:01;2.10;99.90
23102;DHT22;11720;51.214;22.574;2023-02-22T15:10:42;2.20;99.90
23102;DHT22;11720;51.214;22.574;2023-02-22T15:13:26;2.00;99.90
23102;DHT22;11720;51.214;22.574;2023-02-22T15:15:59;2.20;99.90
23102;DHT22;11720;51.214;22.574;2023-02-22T15:18:40;2.30;99.90
23102;DHT22;11720;51.214;22.574;2023-02-22T15:21:16;2.30;99.90
23102;DHT22;11720;51.214;22.574;2023-02-22T15:23:55;2.30;99.90
23102;DHT22;11720;51.214;22.574;2023-02-22T15:26:40;2.30;99.90
23102;DHT22;11720;51.214;22.574;2023-02-22T15:29:17;2.30;99.90
23102;DHT22;11720;51.214;22.574;2023-02-22T15:31:43;2.20;99.90
23102;DHT22;11720;51.214;22.574;2023-02-22T15:36:41;2.20;99.90
23102;DHT22;11720;51.214;22.574;2023-02-22T15:39:31;2.10;99.90
23102;DHT22;11720;51.214;22.574;2023-02-22T15:42:11;2.10;99.90
23102;DHT22;11720;51.214;22.574;2023-02-22T15:44:45;2.10;99.90
23102;DHT22;11720;51.214;22.574;2023-02-22T15:47:19;2.00;99.90
23102;DHT22;11720;51.214;22.574;2023-02-22T15:49:46;2.00;99.90
23102;DHT22;11720;51.214;22.574;2023-02-22T15:52:32;2.00;99.90
23102;DHT22;11720;51.214;22.574;2023-02-22T15:54:58;1.90;99.90
23102;DHT22;11720;51.214;22.574;2023-02-22T15:57:24;1.90;99.90
23102;DHT22;11720;51.214;22.574;2023-02-22T15:59:54;1.90;99.90
23102;DHT22;11720;51.214;22.574;2023-02-22T16:02:30;1.80;99.90
23102;DHT22;11720;51.214;22.574;2023-02-22T16:04:59;1.80;99.90
23102;DHT22;11720;51.214;22.574;2023-02-22T16:07:26;1.70;99.90
23102;DHT22;11720;51.214;22.574;2023-02-22T16:09:52;1.80;99.90
23102;DHT22;11720;51.214;22.574;2023-02-22T16:12:25;1.80;99.90
23102;DHT22;11720;51.214;22.574;2023-02-22T16:14:51;1.70;99.90
23102;DHT22;11720;51.214;22.574;2023-02-22T16:17:24;1.70;99.90
23102;DHT22;11720;51.214;22.574;2023-02-22T16:19:59;1.70;99.90
23102;DHT22;11720;51.214;22.574;2023-02-22T16:22:47;1.70;99.90
23102;DHT22;11720;51.214;22.574;2023-02-22T16:28:00;1.70;99.90
23102;DHT22;11720;51.214;22.574;2023-02-22T16:30:38;1.80;99.90
23102;DHT22;11720;51.214;22.574;2023-02-22T16:33:06;1.80;99.90
23102;DHT22;11720;51.214;22.574;2023-02-22T16:35:38;1.80;99.90
23102;DHT22;11720;51.214;22.574;2023-02-22T16:38:06;1.80;99.90
23102;DHT22;11720;51.214;22.574;2023-02-22T16:40:41;1.70;99.90
23102;DHT22;11720;51.214;22.574;2023-02-22T16:43:16;1.70;99.90
23102;DHT22;11720;51.214;22.574;2023-02-22T16:45:43;1.70;99.90
23102;DHT22;11720;51.214;22.574;2023-02-22T16:48:22;1.70;99.90
23102;DHT22;11720;51.214;22.574;2023-02-22T16:50:49;1.70;99.90
23102;DHT22;11720;51.214;22.574;2023-02-22T16:53:18;1.70;99.90
23102;DHT22;11720;51.214;22.574;2023-02-22T16:55:48;1.60;99.90
23102;DHT22;11720;51.214;22.574;2023-02-22T16:58:16;1.60;99.90
23102;DHT22;11720;51.214;22.574;2023-02-22T17:00:43;1.50;99.90
23102;DHT22;11720;51.214;22.574;2023-02-22T17:03:17;1.50;99.90
23102;DHT22;11720;51.214;22.574;2023-02-22T17:05:43;1.50;99.90
23102;DHT22;11720;51.214;22.574;2023-02-22T17:08:09;1.50;99.90
23102;DHT22;11720;51.214;22.574;2023-02-22T17:10:35;1.50;99.90
23102;DHT22;11720;51.214;22.574;2023-02-22T17:13:01;1.50;99.90
23102;DHT22;11720;51.214;22.574;2023-02-22T17:15:30;1.40;99.90
23102;DHT22;11720;51.214;22.574;2023-02-22T17:18:00;1.40;99.90
23102;DHT22;11720;51.214;22.574;2023-02-22T17:20:29;1.40;99.90
23102;DHT22;11720;51.214;22.574;2023-02-22T17:23:03;1.40;99.90
23102;DHT22;11720;51.214;22.574;2023-02-22T17:25:38;1.40;99.90
23102;DHT22;11720;51.214;22.574;2023-02-22T17:28:05;1.30;99.90
23102;DHT22;11720;51.214;22.574;2023-02-22T17:30:31;1.30;99.90
23102;DHT22;11720;51.214;22.574;2023-02-22T17:33:05;1.40;99.90
23102;DHT22;11720;51.214;22.574;2023-02-22T17:35:33;1.40;99.90
23102;DHT22;11720;51.214;22.574;2023-02-22T17:38:00;1.30;99.90
23102;DHT22;11720;51.214;22.574;2023-02-22T17:40:29;1.20;99.90
23102;DHT22;11720;51.214;22.574;2023-02-22T17:42:54;1.20;99.90
23102;DHT22;11720;51.214;22.574;2023-02-22T17:45:22;1.20;99.90
23102;DHT22;11720;51.214;22.574;2023-02-22T17:47:52;1.20;99.90
23102;DHT22;11720;51.214;22.574;2023-02-22T17:50:19;1.20;99.90
23102;DHT22;11720;51.214;22.574;2023-02-22T17:52:46;1.20;99.90
23102;DHT22;11720;51.214;22.574;2023-02-22T17:55:12;1.10;99.90
23102;DHT22;11720;51.214;22.574;2023-02-22T17:57:38;1.20;99.90
23102;DHT22;11720;51.214;22.574;2023-02-22T18:00:11;1.10;99.90
23102;DHT22;11720;51.214;22.574;2023-02-22T18:02:41;1.10;99.90
23102;DHT22;11720;51.214;22.574;2023-02-22T18:05:11;1.00;99.90
23102;DHT22;11720;51.214;22.574;2023-02-22T18:07:41;1.00;99.90
23102;DHT22;11720;51.214;22.574;2023-02-22T18:10:08;1.00;99.90